Terminal Aerodrome Forecast
Issued by NWS

Current Version | Previous Version | Text Only | Print | Product List | Glossary On
Versions: 1 2 3 4 5 6 7 8 9 10 11 12
000
FTUS45 KGJT 311729
TAFCNY
TAF
KCNY 311729Z 3118/0118 32006KT P6SM FEW070 SCT250
     FM010200 22010KT P6SM FEW250
     FM011000 34005KT P6SM SKC=

USA.gov is the U.S. government's official web portal to all federal, state and local government web resources and services.